Time;durP1;ratioP1;P1;durP2;ratioP2;P2;SDS_P1;SDS_P2;PMS_P1;PMS_P2;Temp;Humidity;BMP_temperature;BMP_pressure;BME280_temperature;BME280_humidity;BME280_pressure;Samples;Min_cycle;Max_cycle;Signal;HPM_P1;HPM_P2
2023/02/22 00:00:21;;;;;;;0.50;0.40;;;6.20;99.90;;;;;;5075674;28;20277;-79
2023/02/22 00:02:49;;;;;;;0.50;0.40;;;6.20;99.90;;;;;;5072473;28;20527;-80
2023/02/22 00:05:19;;;;;;;0.50;0.40;;;6.00;99.90;;;;;;5080426;28;20249;-79
2023/02/22 00:07:47;;;;;;;0.50;0.50;;;5.90;99.90;;;;;;5081647;28;20194;-79
2023/02/22 00:10:19;;;;;;;0.50;0.40;;;5.90;99.90;;;;;;5066241;28;20190;-80
2023/02/22 00:12:48;;;;;;;0.50;0.40;;;5.80;99.90;;;;;;5060786;28;20229;-80
2023/02/22 00:15:16;;;;;;;0.50;0.40;;;5.70;99.90;;;;;;5061467;28;20195;-78
2023/02/22 00:17:43;;;;;;;2.88;2.55;;;5.60;99.90;;;;;;5060721;28;20195;-78
2023/02/22 00:20:12;;;;;;;0.50;0.43;;;5.50;99.90;;;;;;5061311;28;20254;-80
2023/02/22 00:22:41;;;;;;;0.50;0.40;;;5.40;99.90;;;;;;5061745;28;20256;-80
2023/02/22 00:25:08;;;;;;;1.30;1.30;;;5.30;99.90;;;;;;5080983;28;20668;-79
2023/02/22 00:27:36;;;;;;;0.50;0.40;;;5.20;99.90;;;;;;5081629;28;20201;-80
2023/02/22 00:30:04;;;;;;;0.50;0.40;;;5.20;99.90;;;;;;5074231;28;20225;-79
2023/02/22 00:32:31;;;;;;;0.50;0.40;;;5.10;99.90;;;;;;5082434;28;20301;-78
2023/02/22 00:34:58;;;;;;;0.50;0.40;;;5.10;99.90;;;;;;5082630;28;20189;-80
2023/02/22 00:37:25;;;;;;;0.50;0.40;;;5.10;99.90;;;;;;5074507;28;20616;-77
2023/02/22 00:39:53;;;;;;;0.50;0.40;;;5.00;99.90;;;;;;5073818;28;20289;-80
2023/02/22 00:42:20;;;;;;;0.80;0.80;;;5.00;99.90;;;;;;5068197;28;20712;-80
2023/02/22 00:44:47;;;;;;;0.50;0.40;;;4.90;99.90;;;;;;5081325;28;20278;-79
2023/02/22 00:47:14;;;;;;;0.50;0.40;;;4.80;99.90;;;;;;5068100;28;20217;-79
2023/02/22 00:49:41;;;;;;;0.50;0.40;;;4.70;99.90;;;;;;5065760;28;20222;-80
2023/02/22 00:52:08;;;;;;;0.50;0.40;;;4.70;99.90;;;;;;5064112;28;20211;-80
2023/02/22 00:54:35;;;;;;;0.90;0.90;;;4.60;99.90;;;;;;5063410;28;20629;-79
2023/02/22 00:57:04;;;;;;;0.50;0.40;;;4.60;99.90;;;;;;5064061;28;20250;-79
2023/02/22 00:59:31;;;;;;;0.50;0.40;;;4.50;99.90;;;;;;5072291;28;20198;-80
2023/02/22 01:01:58;;;;;;;1.48;1.45;;;4.40;99.90;;;;;;5080591;28;20297;-80
2023/02/22 01:04:25;;;;;;;0.50;0.40;;;4.30;99.90;;;;;;5063781;28;20206;-79
2023/02/22 01:06:52;;;;;;;0.50;0.50;;;4.40;99.90;;;;;;5063666;28;20191;-79
2023/02/22 01:09:20;;;;;;;3.17;2.00;;;4.50;99.90;;;;;;5065586;28;20195;-80
2023/02/22 01:11:47;;;;;;;2.50;2.40;;;4.60;99.90;;;;;;5082116;28;20245;-79
2023/02/22 01:14:17;;;;;;;0.50;0.40;;;4.70;99.90;;;;;;5078986;28;20197;-80
2023/02/22 01:16:44;;;;;;;0.50;0.40;;;4.90;99.90;;;;;;5084759;28;20201;-80
2023/02/22 01:19:11;;;;;;;0.60;0.40;;;5.00;99.90;;;;;;5085160;28;20194;-79
2023/02/22 01:21:40;;;;;;;0.50;0.40;;;5.10;99.90;;;;;;5066029;28;20717;-79
2023/02/22 01:24:07;;;;;;;0.50;0.40;;;5.20;99.90;;;;;;5062923;28;20278;-79
2023/02/22 01:26:34;;;;;;;0.98;0.98;;;5.20;99.90;;;;;;5063226;28;20286;-80
2023/02/22 01:29:01;;;;;;;0.50;0.40;;;5.30;99.90;;;;;;5062986;28;20232;-79
2023/02/22 01:31:29;;;;;;;0.50;0.40;;;5.40;99.90;;;;;;5063251;28;20658;-80
2023/02/22 01:33:56;;;;;;;0.50;0.40;;;5.40;99.90;;;;;;5070851;28;20190;-80
2023/02/22 01:36:23;;;;;;;0.50;0.40;;;5.50;99.90;;;;;;5062727;28;20217;-77
2023/02/22 01:38:49;;;;;;;0.55;0.52;;;5.60;99.90;;;;;;5063183;28;20226;-80
2023/02/22 01:41:17;;;;;;;0.52;0.40;;;5.60;99.90;;;;;;5063641;28;20298;-78
2023/02/22 01:43:44;;;;;;;0.50;0.40;;;5.70;99.90;;;;;;5072697;28;20679;-79
2023/02/22 01:46:21;;;;;;;0.50;0.40;;;5.70;99.90;;;;;;5078528;28;20222;-79
2023/02/22 01:48:52;;;;;;;0.50;0.40;;;5.70;99.90;;;;;;5072458;28;20194;-79
2023/02/22 01:51:21;;;;;;;0.50;0.40;;;5.90;99.90;;;;;;5064559;28;20230;-80
2023/02/22 01:53:53;;;;;;;0.50;0.40;;;5.90;99.90;;;;;;5072928;28;20199;-80
2023/02/22 01:56:22;;;;;;;0.50;0.40;;;5.90;99.90;;;;;;5078782;28;20218;-80
2023/02/22 01:58:54;;;;;;;0.50;0.40;;;6.00;99.90;;;;;;5082133;28;20286;-80
2023/02/22 02:01:23;;;;;;;1.95;1.85;;;6.00;99.90;;;;;;5078640;28;20225;-79
2023/02/22 02:03:56;;;;;;;0.50;0.40;;;6.10;99.90;;;;;;5068327;28;20257;-78
2023/02/22 02:06:24;;;;;;;0.50;0.40;;;6.10;99.90;;;;;;5084262;28;20275;-76
2023/02/22 02:08:59;;;;;;;0.50;0.40;;;6.10;99.90;;;;;;5066750;28;20213;-79
2023/02/22 02:11:27;;;;;;;0.50;0.40;;;6.10;99.90;;;;;;5080833;28;20194;-79
2023/02/22 02:13:55;;;;;;;0.50;0.40;;;6.10;99.90;;;;;;5076133;28;20280;-79
2023/02/22 02:16:24;;;;;;;0.82;0.82;;;6.20;99.90;;;;;;5084589;28;20297;-80
2023/02/22 02:18:52;;;;;;;0.50;0.40;;;6.20;99.90;;;;;;5082975;28;20196;-80
2023/02/22 02:21:48;;;;;;;0.50;0.40;;;6.20;99.90;;;;;;5064656;28;20639;-80
2023/02/22 02:24:49;;;;;;;0.50;0.40;;;6.20;99.90;;;;;;5058601;28;20195;-79
2023/02/22 02:27:21;;;;;;;0.50;0.40;;;6.20;99.90;;;;;;5069726;28;20236;-79
2023/02/22 02:30:25;;;;;;;0.50;0.50;;;6.20;99.90;;;;;;5084833;28;20194;-79
2023/02/22 02:33:00;;;;;;;0.50;0.40;;;6.20;99.90;;;;;;5082998;28;20217;-79
2023/02/22 02:35:47;;;;;;;1.10;1.10;;;6.30;99.90;;;;;;5079368;28;20245;-79
2023/02/22 02:38:22;;;;;;;0.50;0.40;;;6.30;99.90;;;;;;5083894;28;20281;-79
2023/02/22 02:40:55;;;;;;;4.53;4.22;;;6.30;99.90;;;;;;5084455;28;20669;-79
2023/02/22 02:43:32;;;;;;;2.25;2.15;;;6.30;99.90;;;;;;5077127;28;20294;-80
2023/02/22 02:46:04;;;;;;;0.50;0.40;;;6.20;99.90;;;;;;5071212;28;20268;-80
2023/02/22 02:48:34;;;;;;;0.50;0.40;;;6.20;99.90;;;;;;5077732;28;20224;-79
2023/02/22 02:51:05;;;;;;;0.77;0.77;;;6.20;99.90;;;;;;5081522;28;20225;-78
2023/02/22 02:53:36;;;;;;;0.50;0.40;;;6.20;99.90;;;;;;5082167;28;20775;-79
2023/02/22 02:56:03;;;;;;;0.50;0.40;;;6.10;99.90;;;;;;5116444;22;20585;-81
2023/02/22 02:58:31;;;;;;;0.50;0.40;;;6.10;99.90;;;;;;5073349;28;20202;-80
2023/02/22 03:01:03;;;;;;;0.50;0.40;;;6.10;99.90;;;;;;5076639;28;20204;-81
2023/02/22 03:03:46;;;;;;;0.50;0.40;;;6.20;99.90;;;;;;5076952;28;20202;-81
2023/02/22 03:06:37;;;;;;;0.50;0.40;;;6.10;99.90;;;;;;5062995;28;20634;-81
2023/02/22 03:09:14;;;;;;;0.50;0.40;;;6.10;99.90;;;;;;5063846;28;20675;-80
2023/02/22 03:11:50;;;;;;;0.50;0.40;;;6.10;99.90;;;;;;5063774;28;20737;-80
2023/02/22 03:14:26;;;;;;;0.50;0.40;;;6.10;99.90;;;;;;5067785;28;20198;-80
2023/02/22 03:17:00;;;;;;;1.15;1.15;;;6.10;99.90;;;;;;5066448;28;20308;-80
2023/02/22 03:19:37;;;;;;;3.35;2.67;;;6.20;99.90;;;;;;5063893;28;20202;-81
2023/02/22 03:22:12;;;;;;;0.50;0.40;;;6.20;99.90;;;;;;5066504;28;20194;-80
2023/02/22 03:24:51;;;;;;;0.50;0.40;;;6.20;99.90;;;;;;5070456;28;20223;-80
2023/02/22 03:27:23;;;;;;;0.60;0.60;;;6.20;99.90;;;;;;5059494;28;20305;-81
2023/02/22 03:29:54;;;;;;;0.50;0.40;;;6.20;99.90;;;;;;5067205;28;20282;-80
2023/02/22 03:32:27;;;;;;;0.50;0.40;;;6.20;99.90;;;;;;5069497;28;20262;-80
2023/02/22 03:35:01;;;;;;;0.50;0.40;;;6.20;99.90;;;;;;5067861;28;20238;-80
2023/02/22 03:37:32;;;;;;;0.50;0.40;;;6.20;99.90;;;;;;5065196;28;20210;-81
2023/02/22 03:40:06;;;;;;;0.50;0.40;;;6.30;99.90;;;;;;5073053;28;20212;-80
2023/02/22 03:42:37;;;;;;;4.18;4.03;;;6.30;99.90;;;;;;5065493;28;20289;-78
2023/02/22 03:45:08;;;;;;;0.50;0.50;;;6.20;99.90;;;;;;5068014;28;20248;-80
2023/02/22 03:47:40;;;;;;;0.65;0.65;;;6.20;99.90;;;;;;5069538;28;20226;-80
2023/02/22 03:50:14;;;;;;;1.35;1.35;;;6.10;99.90;;;;;;5068992;28;20202;-80
2023/02/22 03:52:41;;;;;;;0.50;0.40;;;6.10;99.90;;;;;;5068594;28;20198;-80
2023/02/22 03:55:10;;;;;;;19.15;3.20;;;6.10;99.90;;;;;;5068215;28;20217;-81
2023/02/22 03:57:40;;;;;;;4.00;2.85;;;6.10;99.90;;;;;;5068039;28;20205;-79
2023/02/22 04:00:09;;;;;;;0.85;0.82;;;6.10;99.90;;;;;;5073193;28;20201;-80
2023/02/22 04:02:36;;;;;;;0.50;0.40;;;6.10;99.90;;;;;;5072954;28;20252;-79
2023/02/22 04:05:04;;;;;;;0.50;0.50;;;6.00;99.90;;;;;;5065858;28;20226;-80
2023/02/22 04:07:32;;;;;;;0.50;0.40;;;6.00;99.90;;;;;;5065196;28;20678;-79
2023/02/22 04:10:01;;;;;;;4.50;2.15;;;5.90;99.90;;;;;;5066768;28;20203;-79
2023/02/22 04:12:28;;;;;;;0.50;0.40;;;5.90;99.90;;;;;;5068128;28;20297;-80
2023/02/22 04:14:55;;;;;;;0.95;0.95;;;5.80;99.90;;;;;;5069075;28;20198;-80
2023/02/22 04:17:21;;;;;;;0.50;0.40;;;5.80;99.90;;;;;;5071607;28;20294;-80
2023/02/22 04:19:48;;;;;;;0.50;0.50;;;5.90;99.90;;;;;;5074809;28;20194;-79
2023/02/22 04:22:15;;;;;;;3.97;1.25;;;5.90;99.90;;;;;;5064500;28;20205;-79
2023/02/22 04:24:44;;;;;;;0.50;0.40;;;5.90;99.90;;;;;;5067795;28;20293;-79
2023/02/22 04:27:11;;;;;;;0.50;0.40;;;5.90;99.90;;;;;;5064433;28;20688;-80
2023/02/22 04:29:37;;;;;;;1.92;1.83;;;5.90;99.90;;;;;;5072132;28;20202;-79
2023/02/22 04:32:05;;;;;;;0.80;0.80;;;5.90;99.90;;;;;;5064391;28;20262;-79
2023/02/22 04:34:31;;;;;;;2.55;0.95;;;5.80;99.90;;;;;;5071942;28;20199;-79
2023/02/22 04:36:59;;;;;;;4.75;4.45;;;5.70;99.90;;;;;;5075298;28;20389;-81
2023/02/22 04:39:25;;;;;;;0.50;0.40;;;5.70;99.90;;;;;;5067222;28;20203;-79
2023/02/22 04:41:54;;;;;;;0.50;0.40;;;5.60;99.90;;;;;;5067926;28;20285;-78
2023/02/22 04:44:21;;;;;;;0.50;0.50;;;5.50;99.90;;;;;;5066256;28;20202;-80
2023/02/22 04:46:48;;;;;;;2.10;1.58;;;5.50;99.90;;;;;;5075619;28;20588;-79
2023/02/22 04:49:15;;;;;;;5.72;3.67;;;5.50;99.90;;;;;;5067588;28;20262;-81
2023/02/22 04:51:42;;;;;;;0.50;0.40;;;5.50;99.90;;;;;;5068377;28;20205;-78
2023/02/22 04:54:09;;;;;;;15.02;1.98;;;5.40;99.90;;;;;;5070542;28;20191;-77
2023/02/22 04:56:35;;;;;;;0.70;0.70;;;5.40;99.90;;;;;;5071411;28;20325;-80
2023/02/22 04:59:04;;;;;;;0.90;0.85;;;5.40;99.90;;;;;;5067527;28;20224;-78
2023/02/22 05:01:32;;;;;;;0.50;0.40;;;5.40;99.90;;;;;;5071141;28;20198;-78
2023/02/22 05:03:59;;;;;;;0.50;0.40;;;5.40;99.90;;;;;;5066832;28;20244;-79
2023/02/22 05:06:26;;;;;;;0.50;0.40;;;5.30;99.90;;;;;;5065125;28;20218;-78
2023/02/22 05:08:53;;;;;;;0.50;0.40;;;5.30;99.90;;;;;;5074274;28;20236;-78
2023/02/22 05:11:20;;;;;;;0.50;0.50;;;5.30;99.90;;;;;;5063672;28;20575;-78
2023/02/22 05:13:47;;;;;;;0.82;0.82;;;5.30;99.90;;;;;;5068877;28;20274;-78
2023/02/22 05:16:16;;;;;;;0.50;0.40;;;5.30;99.90;;;;;;5064836;28;20264;-79
2023/02/22 05:18:43;;;;;;;0.98;0.98;;;5.20;99.90;;;;;;5065581;28;20202;-78
2023/02/22 05:21:10;;;;;;;0.50;0.40;;;5.10;99.90;;;;;;5068011;28;20193;-77
2023/02/22 05:23:37;;;;;;;0.73;0.73;;;5.10;99.90;;;;;;5067890;28;20197;-78
2023/02/22 05:26:05;;;;;;;6.75;3.35;;;5.00;99.90;;;;;;5064807;28;20304;-78
2023/02/22 05:28:32;;;;;;;0.85;0.85;;;5.10;99.90;;;;;;5064213;28;20578;-77
2023/02/22 05:30:59;;;;;;;0.50;0.45;;;5.10;99.90;;;;;;5055401;28;20198;-79
2023/02/22 05:33:27;;;;;;;0.50;0.40;;;5.00;99.90;;;;;;5064246;28;20226;-79
2023/02/22 05:35:54;;;;;;;0.50;0.40;;;5.00;99.90;;;;;;5063570;28;20214;-78
2023/02/22 05:38:22;;;;;;;0.50;0.40;;;4.90;99.90;;;;;;5063778;28;20209;-78
2023/02/22 05:40:49;;;;;;;0.50;0.40;;;4.80;99.90;;;;;;5064096;28;20204;-77
2023/02/22 05:43:16;;;;;;;0.98;0.90;;;4.70;99.90;;;;;;5063507;28;20220;-78
2023/02/22 05:45:43;;;;;;;0.50;0.40;;;4.60;99.90;;;;;;5063983;28;20225;-77
2023/02/22 05:48:11;;;;;;;0.50;0.40;;;4.50;99.90;;;;;;5064446;28;20582;-79
2023/02/22 05:50:40;;;;;;;1.25;0.95;;;4.40;99.90;;;;;;5064783;28;20288;-78
2023/02/22 05:53:07;;;;;;;0.68;0.68;;;4.40;99.90;;;;;;5064119;28;20194;-77
2023/02/22 05:55:33;;;;;;;0.50;0.40;;;4.40;99.90;;;;;;5056005;28;20602;-77
2023/02/22 05:58:00;;;;;;;4.22;2.90;;;4.40;99.90;;;;;;5065599;28;20205;-79
2023/02/22 06:00:29;;;;;;;0.50;0.40;;;4.40;99.90;;;;;;5068140;28;20202;-79
2023/02/22 06:02:57;;;;;;;2.08;1.98;;;4.30;99.90;;;;;;5066989;28;20261;-78
2023/02/22 06:05:24;;;;;;;1.85;1.75;;;4.30;99.90;;;;;;5058308;28;20494;-78
2023/02/22 06:07:53;;;;;;;1.13;1.08;;;4.20;99.90;;;;;;5062743;28;20565;-77
2023/02/22 06:10:20;;;;;;;0.50;0.40;;;4.20;99.90;;;;;;5070712;28;20217;-78
2023/02/22 06:12:47;;;;;;;0.90;0.60;;;4.10;99.90;;;;;;5073028;28;20198;-77
2023/02/22 06:15:15;;;;;;;0.50;0.40;;;4.10;99.90;;;;;;5063877;28;20309;-78
2023/02/22 06:17:42;;;;;;;0.50;0.40;;;4.00;99.90;;;;;;5067027;28;20195;-80
2023/02/22 06:20:10;;;;;;;0.50;0.40;;;4.00;99.90;;;;;;5063137;28;20262;-77
2023/02/22 06:22:39;;;;;;;0.50;0.40;;;4.00;99.90;;;;;;5067697;28;20730;-79
2023/02/22 06:25:10;;;;;;;1.33;1.23;;;3.80;99.90;;;;;;5069219;28;20220;-78
2023/02/22 06:27:37;;;;;;;0.50;0.40;;;3.70;99.90;;;;;;5063376;28;20206;-78
2023/02/22 06:30:04;;;;;;;1.20;1.20;;;3.70;99.90;;;;;;5063681;28;20654;-77
2023/02/22 06:32:31;;;;;;;0.50;0.50;;;3.60;99.90;;;;;;5059763;28;20211;-77
2023/02/22 06:34:58;;;;;;;0.50;0.40;;;3.50;99.90;;;;;;5057826;28;20294;-78
2023/02/22 06:37:25;;;;;;;0.50;0.40;;;3.50;99.90;;;;;;5053171;28;20195;-76
2023/02/22 06:39:52;;;;;;;0.50;0.40;;;3.50;99.90;;;;;;5065086;28;20219;-78
2023/02/22 06:42:20;;;;;;;0.50;0.40;;;3.50;99.90;;;;;;5056514;28;20198;-78
2023/02/22 06:44:47;;;;;;;0.50;0.40;;;3.50;99.90;;;;;;5068814;28;20190;-79
2023/02/22 06:47:14;;;;;;;0.50;0.40;;;3.60;99.90;;;;;;5065351;28;20214;-78
2023/02/22 06:49:41;;;;;;;0.50;0.40;;;3.60;99.90;;;;;;5066077;28;20278;-78
2023/02/22 06:52:09;;;;;;;0.50;0.40;;;3.60;99.90;;;;;;5064394;28;20233;-79
2023/02/22 06:54:37;;;;;;;0.50;0.40;;;3.70;99.90;;;;;;5064370;28;20281;-78
2023/02/22 06:57:03;;;;;;;0.50;0.40;;;3.80;99.90;;;;;;5057619;28;20252;-79
2023/02/22 06:59:32;;;;;;;1.42;1.42;;;3.90;99.90;;;;;;5064467;28;20253;-79
2023/02/22 07:01:59;;;;;;;0.50;0.40;;;3.90;99.90;;;;;;5063272;28;20213;-79
2023/02/22 07:04:25;;;;;;;0.50;0.40;;;4.00;99.90;;;;;;5077547;28;20204;-79
2023/02/22 07:06:52;;;;;;;0.50;0.50;;;4.10;99.90;;;;;;5068275;28;20304;-80
2023/02/22 07:09:19;;;;;;;0.50;0.40;;;4.20;99.90;;;;;;5066775;28;20741;-79
2023/02/22 07:11:46;;;;;;;1.02;1.02;;;4.20;99.90;;;;;;5074774;28;20194;-79
2023/02/22 07:14:13;;;;;;;0.50;0.40;;;4.30;99.90;;;;;;5065182;28;20203;-80
2023/02/22 07:16:41;;;;;;;0.50;0.40;;;4.30;99.90;;;;;;5063310;28;20305;-80
2023/02/22 07:19:08;;;;;;;0.52;0.50;;;4.40;99.90;;;;;;5075733;28;20225;-80
2023/02/22 07:21:35;;;;;;;0.73;0.73;;;4.50;99.90;;;;;;5068295;28;20281;-80
2023/02/22 07:24:02;;;;;;;0.50;0.40;;;4.60;99.90;;;;;;5063445;28;20295;-80
2023/02/22 07:26:28;;;;;;;0.50;0.40;;;4.70;99.90;;;;;;5061040;28;20564;-78
2023/02/22 07:28:55;;;;;;;0.50;0.40;;;4.70;99.90;;;;;;5061297;28;20198;-78
2023/02/22 07:31:22;;;;;;;0.50;0.40;;;4.80;99.90;;;;;;5063318;28;20297;-78
2023/02/22 07:33:51;;;;;;;0.50;0.40;;;4.90;99.90;;;;;;5063976;28;20286;-79
2023/02/22 07:36:18;;;;;;;0.50;0.40;;;5.00;99.90;;;;;;5066235;28;20221;-79
2023/02/22 07:38:45;;;;;;;0.50;0.40;;;5.10;99.90;;;;;;5066648;28;20205;-77
2023/02/22 07:41:12;;;;;;;0.50;0.40;;;5.20;99.90;;;;;;5064296;28;20728;-78
2023/02/22 07:43:39;;;;;;;0.50;0.40;;;5.40;99.90;;;;;;5063295;28;20225;-79
2023/02/22 07:46:06;;;;;;;0.50;0.40;;;5.50;99.90;;;;;;5064284;28;20293;-78
2023/02/22 07:48:33;;;;;;;0.50;0.40;;;5.50;99.90;;;;;;5068797;28;20289;-78
2023/02/22 07:51:01;;;;;;;0.50;0.40;;;5.60;99.90;;;;;;5067006;28;20232;-80
2023/02/22 07:53:30;;;;;;;0.50;0.40;;;5.70;99.90;;;;;;5063392;28;20285;-79
2023/02/22 07:55:57;;;;;;;3.72;3.40;;;5.70;99.90;;;;;;5066093;28;20593;-79
2023/02/22 07:58:26;;;;;;;0.60;0.50;;;5.80;99.90;;;;;;5052541;28;20191;-79
2023/02/22 08:00:53;;;;;;;0.60;0.60;;;5.80;99.90;;;;;;5069146;28;20744;-79
2023/02/22 08:03:23;;;;;;;0.60;0.60;;;5.80;99.90;;;;;;5066934;28;20281;-79
2023/02/22 08:05:52;;;;;;;0.50;0.40;;;5.90;99.90;;;;;;5063440;28;20302;-78
2023/02/22 08:08:21;;;;;;;0.50;0.40;;;6.00;99.90;;;;;;5067322;28;20301;-79
2023/02/22 08:10:49;;;;;;;2.28;2.15;;;6.00;99.90;;;;;;5067905;28;20285;-78
2023/02/22 08:13:16;;;;;;;0.50;0.40;;;6.10;99.90;;;;;;5058551;28;20207;-79
2023/02/22 08:15:43;;;;;;;0.50;0.40;;;6.20;99.90;;;;;;5066732;28;20305;-78
2023/02/22 08:18:13;;;;;;;0.52;0.50;;;6.30;99.90;;;;;;5066402;28;20260;-79
2023/02/22 08:20:42;;;;;;;0.50;0.40;;;6.40;99.90;;;;;;5063514;28;20194;-79
2023/02/22 08:23:09;;;;;;;0.50;0.40;;;6.60;99.90;;;;;;5063728;28;20222;-79
2023/02/22 08:25:38;;;;;;;1.30;1.25;;;6.80;99.90;;;;;;5067912;28;20296;-80
2023/02/22 08:28:06;;;;;;;4.30;4.10;;;6.90;99.90;;;;;;5068340;28;20655;-80
2023/02/22 08:30:34;;;;;;;2.88;2.45;;;7.10;99.90;;;;;;5061314;28;20196;-78
2023/02/22 08:33:02;;;;;;;0.50;0.40;;;7.30;99.90;;;;;;5066454;28;20190;-78
2023/02/22 08:35:30;;;;;;;0.50;0.40;;;7.40;99.90;;;;;;5063998;28;20277;-79
2023/02/22 08:37:59;;;;;;;0.50;0.40;;;7.60;99.90;;;;;;5064667;28;20218;-80
2023/02/22 08:40:27;;;;;;;0.50;0.40;;;7.70;99.90;;;;;;5056456;28;20313;-79
2023/02/22 08:42:55;;;;;;;0.50;0.40;;;7.80;99.90;;;;;;5064557;28;20217;-78
2023/02/22 08:45:23;;;;;;;0.50;0.40;;;8.00;99.90;;;;;;5068116;28;20305;-80
2023/02/22 08:47:50;;;;;;;0.50;0.40;;;8.20;99.90;;;;;;5069183;28;20217;-79
2023/02/22 08:50:18;;;;;;;0.50;0.40;;;8.70;99.90;;;;;;5066985;28;20209;-80
2023/02/22 08:52:45;;;;;;;0.50;0.40;;;9.20;99.90;;;;;;5067434;28;20288;-80
2023/02/22 08:55:12;;;;;;;0.50;0.40;;;9.40;99.90;;;;;;5064818;28;20313;-78
2023/02/22 08:57:39;;;;;;;0.50;0.40;;;9.70;99.90;;;;;;5124612;22;20750;-78
2023/02/22 09:00:09;;;;;;;0.50;0.40;;;10.10;99.90;;;;;;5077466;28;20197;-79
2023/02/22 09:02:36;;;;;;;0.50;0.40;;;10.20;99.90;;;;;;5077858;28;20259;-80
2023/02/22 09:05:04;;;;;;;0.50;0.40;;;10.70;99.90;;;;;;5078374;28;20222;-78
2023/02/22 09:07:31;;;;;;;0.50;0.40;;;11.10;99.90;;;;;;5077677;28;20214;-79
2023/02/22 09:09:58;;;;;;;2.43;2.20;;;11.70;99.90;;;;;;5077300;28;20308;-78
2023/02/22 09:12:25;;;;;;;1.40;1.40;;;12.30;99.90;;;;;;5079682;28;20495;-82
2023/02/22 09:14:52;;;;;;;0.50;0.40;;;12.60;99.90;;;;;;5079214;28;20443;-81
2023/02/22 09:17:20;;;;;;;1.50;1.50;;;13.20;99.90;;;;;;5078826;28;20889;-80
2023/02/22 09:19:47;;;;;;;0.50;0.30;;;13.70;99.90;;;;;;5079120;28;20479;-80
2023/02/22 09:22:14;;;;;;;0.50;0.40;;;14.40;99.90;;;;;;5080054;28;20442;-79
2023/02/22 09:24:41;;;;;;;0.50;0.30;;;15.30;99.90;;;;;;5079384;28;20455;-79
2023/02/22 09:27:10;;;;;;;0.50;0.40;;;16.10;99.90;;;;;;5079633;28;20847;-79
2023/02/22 09:29:38;;;;;;;0.50;0.50;;;16.60;99.90;;;;;;5080812;28;20479;-76
2023/02/22 09:32:05;;;;;;;0.50;0.30;;;17.20;99.90;;;;;;5080591;28;20516;-78
2023/02/22 09:34:34;;;;;;;1.07;1.07;;;17.70;99.90;;;;;;5079628;28;20505;-80
2023/02/22 09:37:03;;;;;;;0.50;0.40;;;18.20;99.90;;;;;;5084660;28;20456;-80
2023/02/22 09:39:34;;;;;;;0.50;0.30;;;18.30;99.90;;;;;;5086781;28;20440;-80
2023/02/22 09:42:09;;;;;;;0.50;0.30;;;18.80;99.90;;;;;;5086118;28;20511;-79
2023/02/22 09:44:43;;;;;;;0.60;0.60;;;18.70;99.90;;;;;;5078021;28;20435;-78
2023/02/22 09:47:17;;;;;;;0.50;0.30;;;18.50;99.90;;;;;;5085135;28;20471;-79
2023/02/22 09:49:56;;;;;;;0.50;0.30;;;18.50;99.90;;;;;;5085293;28;20437;-80
2023/02/22 09:52:27;;;;;;;0.50;0.40;;;18.30;99.90;;;;;;5083397;28;20535;-82
2023/02/22 09:55:04;;;;;;;0.50;0.30;;;18.10;99.90;;;;;;5081545;28;20540;-82
2023/02/22 09:57:35;;;;;;;0.50;0.30;;;17.90;99.90;;;;;;5074041;28;20460;-81
2023/02/22 10:00:12;;;;;;;0.50;0.40;;;17.10;99.90;;;;;;5081425;28;20492;-81
2023/02/22 10:02:44;;;;;;;25.73;23.73;;;16.80;99.90;;;;;;5071513;28;20448;-81
2023/02/22 10:05:18;;;;;;;0.50;0.30;;;16.80;99.90;;;;;;5081389;28;20467;-80
2023/02/22 10:07:51;;;;;;;0.50;0.30;;;16.30;99.90;;;;;;5082264;28;20505;-80
2023/02/22 10:10:22;;;;;;;0.50;0.40;;;16.10;99.90;;;;;;5078820;28;20441;-81
2023/02/22 10:12:57;;;;;;;0.50;0.40;;;15.90;99.90;;;;;;5079442;28;20439;-82
2023/02/22 10:15:46;;;;;;;0.50;0.30;;;16.00;99.90;;;;;;5083414;28;20461;-81
2023/02/22 10:18:48;;;;;;;0.50;0.30;;;16.20;99.90;;;;;;5085579;28;20464;-80
2023/02/22 10:21:34;;;;;;;1.00;0.83;;;16.40;99.90;;;;;;5080032;28;20460;-81
2023/02/22 10:24:10;;;;;;;0.50;0.40;;;16.50;99.90;;;;;;5081408;28;20527;-78
2023/02/22 10:26:41;;;;;;;0.50;0.30;;;16.60;99.90;;;;;;5073943;28;20501;-80
2023/02/22 10:29:16;;;;;;;0.50;0.40;;;16.20;99.90;;;;;;5084111;28;20467;-81
2023/02/22 10:31:46;;;;;;;0.50;0.37;;;16.20;99.90;;;;;;5084560;28;20479;-81
2023/02/22 10:34:15;;;;;;;1.40;1.30;;;16.30;99.90;;;;;;5083653;28;20512;-80
2023/02/22 10:36:47;;;;;;;0.50;0.50;;;16.40;99.90;;;;;;5080911;28;20468;-80
2023/02/22 10:39:23;;;;;;;1.43;1.33;;;16.50;99.90;;;;;;5080835;28;20527;-80
2023/02/22 10:41:53;;;;;;;0.50;0.30;;;16.50;99.90;;;;;;5080034;28;20450;-81
2023/02/22 10:44:19;;;;;;;0.50;0.37;;;16.20;99.90;;;;;;5080633;28;20455;-81
2023/02/22 10:46:47;;;;;;;1.80;1.70;;;16.60;99.90;;;;;;5082505;28;20460;-80
2023/02/22 10:49:20;;;;;;;0.73;0.70;;;16.80;99.90;;;;;;5081383;28;20476;-80
2023/02/22 10:51:57;;;;;;;3.07;1.50;;;17.10;99.90;;;;;;5081537;28;20939;-79
2023/02/22 10:54:30;;;;;;;0.50;0.40;;;17.10;99.90;;;;;;5080690;28;20523;-80
2023/02/22 10:56:58;;;;;;;0.87;0.87;;;17.50;99.90;;;;;;5080157;28;20561;-80
2023/02/22 10:59:32;;;;;;;0.50;0.30;;;17.90;99.90;;;;;;5080770;28;20466;-79
2023/02/22 11:02:00;;;;;;;0.50;0.30;;;18.40;99.90;;;;;;5083692;28;20448;-79
2023/02/22 11:04:28;;;;;;;0.83;0.83;;;19.00;99.90;;;;;;5076894;28;20531;-79
2023/02/22 11:07:20;;;;;;;0.50;0.40;;;19.50;99.90;;;;;;5075541;28;20452;-80
2023/02/22 11:09:50;;;;;;;0.50;0.30;;;20.30;99.90;;;;;;5069289;28;20451;-81
2023/02/22 11:12:20;;;;;;;0.50;0.30;;;20.80;98.40;;;;;;5076401;28;20530;-81
2023/02/22 11:14:48;;;;;;;0.50;0.40;;;21.40;95.60;;;;;;5076749;28;20523;-79
2023/02/22 11:17:21;;;;;;;0.50;0.40;;;21.50;91.90;;;;;;5075628;28;20467;-81
2023/02/22 11:19:50;;;;;;;0.50;0.40;;;21.80;91.20;;;;;;5076465;28;20444;-81
2023/02/22 11:22:25;;;;;;;13.90;4.03;;;21.40;84.00;;;;;;5075876;28;20927;-81
2023/02/22 11:24:56;;;;;;;1.00;0.93;;;20.70;78.40;;;;;;5075500;28;20450;-81
2023/02/22 11:27:31;;;;;;;0.60;0.60;;;19.60;79.50;;;;;;5075578;28;20460;-80
2023/02/22 11:30:22;;;;;;;1.80;1.23;;;19.40;80.90;;;;;;5076432;28;20518;-80
2023/02/22 11:32:53;;;;;;;0.50;0.30;;;19.30;82.30;;;;;;5069592;28;20444;-82
2023/02/22 11:35:34;;;;;;;2.30;1.90;;;19.30;81.30;;;;;;5074751;28;20935;-79
2023/02/22 11:38:16;;;;;;;1.37;1.20;;;19.00;78.10;;;;;;5075048;28;20795;-79
2023/02/22 11:40:43;;;;;;;1.00;0.87;;;18.90;80.80;;;;;;5068437;28;20529;-80
2023/02/22 11:43:15;;;;;;;0.50;0.40;;;19.00;79.40;;;;;;5075089;28;20440;-78
2023/02/22 11:46:01;;;;;;;0.50;0.30;;;19.20;81.00;;;;;;5074401;28;20459;-80
2023/02/22 11:48:31;;;;;;;0.50;0.40;;;19.40;82.20;;;;;;5074441;28;20476;-80
2023/02/22 11:51:10;;;;;;;0.80;0.80;;;19.40;79.70;;;;;;5075348;28;20443;-81
2023/02/22 11:54:04;;;;;;;0.50;0.40;;;19.30;79.20;;;;;;5067764;28;20501;-80
2023/02/22 11:56:38;;;;;;;0.60;0.50;;;19.10;81.10;;;;;;5074866;28;20464;-80
2023/02/22 11:59:16;;;;;;;1.47;0.93;;;19.20;78.10;;;;;;5075731;28;20531;-80
2023/02/22 12:01:51;;;;;;;0.80;0.80;;;18.70;78.00;;;;;;5067992;28;20514;-78
2023/02/22 12:05:02;;;;;;;0.50;0.40;;;18.50;78.10;;;;;;5074945;28;20442;-80
2023/02/22 12:07:49;;;;;;;0.60;0.60;;;18.50;79.00;;;;;;5048598;28;21072;-81
2023/02/22 12:10:27;;;;;;;1.33;1.20;;;18.70;80.60;;;;;;5073950;28;20862;-80
2023/02/22 12:13:09;;;;;;;0.53;0.43;;;18.80;79.30;;;;;;5074971;28;20444;-79
2023/02/22 12:15:44;;;;;;;0.80;0.60;;;19.10;79.80;;;;;;5074536;28;20458;-79
2023/02/22 12:18:20;;;;;;;1.37;1.07;;;19.30;77.10;;;;;;5075118;28;20452;-81
2023/02/22 12:20:53;;;;;;;0.50;0.40;;;18.90;76.40;;;;;;5074785;28;20440;-81
2023/02/22 12:23:23;;;;;;;0.50;0.40;;;19.20;77.20;;;;;;5074015;28;20550;-81
2023/02/22 12:25:58;;;;;;;0.50;0.40;;;19.30;77.80;;;;;;5075120;28;20443;-81
2023/02/22 12:28:32;;;;;;;0.73;0.53;;;19.40;78.50;;;;;;5074684;28;20549;-80
2023/02/22 12:31:18;;;;;;;1.97;0.70;;;19.50;77.80;;;;;;5074321;28;20436;-80
2023/02/22 12:33:52;;;;;;;1.67;0.63;;;19.00;79.00;;;;;;5068140;28;20446;-77
2023/02/22 12:36:24;;;;;;;0.70;0.70;;;18.90;78.10;;;;;;5074953;28;20467;-80
2023/02/22 12:38:58;;;;;;;1.67;1.07;;;18.70;79.00;;;;;;5074223;28;20434;-80
2023/02/22 12:41:33;;;;;;;0.50;0.30;;;18.70;80.70;;;;;;5074480;28;20538;-80
2023/02/22 12:44:04;;;;;;;1.17;0.57;;;18.80;79.30;;;;;;5074786;28;20440;-79
2023/02/22 12:46:37;;;;;;;2.77;2.67;;;18.70;81.70;;;;;;5077555;28;20479;-80
2023/02/22 12:49:14;;;;;;;1.47;1.13;;;18.60;79.20;;;;;;5077829;28;20482;-79
2023/02/22 12:51:46;;;;;;;1.67;1.57;;;18.10;81.70;;;;;;5078229;28;20450;-80
2023/02/22 12:54:18;;;;;;;0.60;0.60;;;17.90;81.50;;;;;;5076795;28;20440;-80
2023/02/22 12:56:53;;;;;;;0.80;0.77;;;17.90;82.50;;;;;;5069646;28;20521;-80
2023/02/22 12:59:25;;;;;;;1.27;1.00;;;17.80;82.30;;;;;;5076941;28;20443;-79
2023/02/22 13:01:57;;;;;;;1.47;0.90;;;17.60;82.80;;;;;;5077498;28;21017;-80
2023/02/22 13:04:24;;;;;;;0.50;0.40;;;17.20;84.30;;;;;;5076914;28;20478;-78
2023/02/22 13:07:01;;;;;;;0.50;0.40;;;17.20;85.20;;;;;;5077995;28;20467;-82
2023/02/22 13:10:01;;;;;;;0.50;0.40;;;17.30;86.00;;;;;;5077370;28;20629;-80